Time;durP1;ratioP1;P1;durP2;ratioP2;P2;SDS_P1;SDS_P2;PMS_P1;PMS_P2;Temp;Humidity;BMP_temperature;BMP_pressure;BME280_temperature;BME280_humidity;BME280_pressure;Samples;Min_cycle;Max_cycle;Signal;HPM_P1;HPM_P2
2023/05/25 00:02:18;;;;;;;12.38;5.00;;;10.60;99.90;;;;;;5077001;28;20067;-57
2023/05/25 00:04:47;;;;;;;10.68;4.70;;;10.70;99.90;;;;;;5079813;28;20043;-57
2023/05/25 00:07:14;;;;;;;15.10;4.95;;;10.60;99.90;;;;;;5078088;28;20047;-57
2023/05/25 00:09:43;;;;;;;15.85;5.20;;;10.60;99.90;;;;;;5078812;28;20091;-56
2023/05/25 00:12:09;;;;;;;12.52;4.35;;;10.40;99.90;;;;;;5078878;28;20062;-56
2023/05/25 00:14:35;;;;;;;11.63;4.20;;;10.40;99.90;;;;;;5077396;28;20044;-57
2023/05/25 00:17:02;;;;;;;15.45;4.15;;;10.10;99.90;;;;;;5079396;28;20202;-56
2023/05/25 00:19:31;;;;;;;11.10;4.32;;;10.10;99.90;;;;;;5077232;28;20044;-57
2023/05/25 00:22:00;;;;;;;13.77;4.60;;;10.10;99.90;;;;;;5061334;28;20081;-55
2023/05/25 00:24:28;;;;;;;12.32;4.35;;;10.20;99.90;;;;;;5077477;28;20044;-56
2023/05/25 00:26:54;;;;;;;12.20;4.20;;;10.20;99.90;;;;;;5078410;28;20117;-57
2023/05/25 00:29:20;;;;;;;11.57;4.10;;;10.20;99.90;;;;;;5078612;28;20096;-56
2023/05/25 00:31:46;;;;;;;12.40;4.28;;;10.10;99.90;;;;;;5077325;28;20048;-56
2023/05/25 00:34:11;;;;;;;11.18;4.30;;;10.20;99.90;;;;;;5078936;28;20130;-56
2023/05/25 00:36:37;;;;;;;12.63;3.72;;;10.20;99.90;;;;;;5076902;28;20048;-57
2023/05/25 00:39:02;;;;;;;12.82;4.65;;;10.20;99.90;;;;;;5078320;28;20033;-57
2023/05/25 00:41:30;;;;;;;12.73;4.30;;;10.10;99.90;;;;;;5066950;28;20060;-56
2023/05/25 00:43:55;;;;;;;14.48;4.35;;;10.10;99.90;;;;;;5058247;28;20112;-57
2023/05/25 00:46:22;;;;;;;17.73;6.00;;;10.10;99.90;;;;;;5058512;28;20033;-56
2023/05/25 00:48:51;;;;;;;11.90;4.25;;;10.00;99.90;;;;;;5057447;28;20694;-57
2023/05/25 00:51:16;;;;;;;13.38;4.05;;;10.00;99.90;;;;;;5059068;28;20051;-56
2023/05/25 00:53:42;;;;;;;12.13;4.05;;;10.00;99.90;;;;;;5056525;28;20076;-56
2023/05/25 00:56:22;;;;;;;12.20;4.40;;;10.00;99.90;;;;;;5058799;28;20057;-56
2023/05/25 00:58:54;;;;;;;10.18;4.15;;;10.00;99.90;;;;;;5039678;28;20037;-56
2023/05/25 01:01:23;;;;;;;12.82;4.97;;;10.00;99.90;;;;;;5057038;28;20591;-56
2023/05/25 01:03:52;;;;;;;11.63;4.00;;;9.90;99.90;;;;;;5058444;28;20037;-56
2023/05/25 01:06:21;;;;;;;14.68;4.32;;;9.80;99.90;;;;;;5056826;28;20041;-57
2023/05/25 01:08:51;;;;;;;12.07;4.38;;;9.80;99.90;;;;;;5058455;28;20225;-57
2023/05/25 01:11:22;;;;;;;8.93;4.00;;;9.90;99.90;;;;;;5056943;28;20037;-57
2023/05/25 01:13:51;;;;;;;13.45;4.70;;;9.80;99.90;;;;;;5058108;28;20037;-57
2023/05/25 01:16:17;;;;;;;13.60;4.18;;;9.90;99.90;;;;;;5057895;28;20045;-58
2023/05/25 01:18:43;;;;;;;13.73;4.95;;;9.80;99.90;;;;;;5057223;28;20052;-57
2023/05/25 01:21:19;;;;;;;12.35;4.93;;;9.70;99.90;;;;;;5058413;28;20041;-57
2023/05/25 01:23:59;;;;;;;10.55;4.28;;;9.80;99.90;;;;;;5056357;28;20055;-58
2023/05/25 01:26:28;;;;;;;12.82;4.53;;;9.70;99.90;;;;;;5058411;28;20079;-57
2023/05/25 01:28:55;;;;;;;9.48;4.35;;;9.70;99.90;;;;;;5057143;28;20056;-57
2023/05/25 01:31:22;;;;;;;14.77;4.97;;;9.80;99.90;;;;;;5039126;28;20120;-58
2023/05/25 01:33:52;;;;;;;13.40;4.72;;;9.80;99.90;;;;;;5057669;28;20057;-57
2023/05/25 01:36:18;;;;;;;14.45;5.13;;;9.70;99.90;;;;;;5056394;28;20412;-58
2023/05/25 01:38:44;;;;;;;12.38;4.38;;;9.70;99.90;;;;;;5058218;28;20112;-57
2023/05/25 01:41:10;;;;;;;14.45;4.20;;;9.80;99.90;;;;;;5056239;28;20049;-57
2023/05/25 01:43:36;;;;;;;13.98;4.65;;;9.60;99.90;;;;;;5058301;28;20052;-57
2023/05/25 01:46:18;;;;;;;15.50;5.28;;;9.60;99.90;;;;;;5056309;28;20037;-57
2023/05/25 01:49:07;;;;;;;;;;;9.40;99.90;;;;;;5057368;28;20052;-57
2023/05/25 01:51:46;;;;;;;14.00;4.50;;;9.40;99.90;;;;;;5062108;28;19971;-58
2023/05/25 01:54:19;;;;;;;12.57;4.78;;;9.50;99.90;;;;;;5060161;28;20493;-57
2023/05/25 01:56:47;;;;;;;13.32;4.60;;;9.60;99.90;;;;;;5061365;28;20041;-58
2023/05/25 01:59:15;;;;;;;11.75;4.70;;;9.60;99.90;;;;;;5061287;28;20055;-57
2023/05/25 02:01:42;;;;;;;10.60;4.60;;;9.50;99.90;;;;;;5060180;28;20053;-56
2023/05/25 02:04:08;;;;;;;11.07;4.32;;;9.50;99.90;;;;;;5061968;28;20044;-57
2023/05/25 02:06:36;;;;;;;13.13;4.75;;;9.50;99.90;;;;;;5059947;28;20048;-56
2023/05/25 02:09:01;;;;;;;12.40;5.03;;;9.50;99.90;;;;;;5061724;28;20052;-56
2023/05/25 02:11:27;;;;;;;13.98;5.28;;;9.50;99.90;;;;;;5059660;28;20049;-57
2023/05/25 02:13:53;;;;;;;11.57;4.97;;;9.70;99.90;;;;;;5060798;28;20051;-57
2023/05/25 02:16:18;;;;;;;12.18;5.63;;;9.60;99.90;;;;;;5061058;28;20037;-56
2023/05/25 02:18:44;;;;;;;13.13;5.57;;;9.60;99.90;;;;;;5042498;28;20068;-56
2023/05/25 02:21:11;;;;;;;15.25;6.20;;;9.50;99.90;;;;;;5061595;28;20061;-56
2023/05/25 02:23:36;;;;;;;12.93;5.60;;;9.60;99.90;;;;;;5059711;28;20041;-56
2023/05/25 02:26:02;;;;;;;16.05;5.85;;;9.60;99.90;;;;;;5061454;28;20156;-56
2023/05/25 02:28:28;;;;;;;13.55;6.25;;;9.40;99.90;;;;;;5060030;28;20061;-56
2023/05/25 02:30:53;;;;;;;12.85;6.13;;;9.50;99.90;;;;;;5060960;28;20041;-56
2023/05/25 02:33:19;;;;;;;14.48;5.93;;;9.60;99.90;;;;;;5060597;28;20100;-55
2023/05/25 02:35:45;;;;;;;12.93;5.63;;;9.40;99.90;;;;;;5060062;28;20413;-56
2023/05/25 02:38:11;;;;;;;12.82;5.72;;;9.40;99.90;;;;;;5060940;28;20099;-56
2023/05/25 02:40:37;;;;;;;16.13;5.68;;;9.50;99.90;;;;;;5059032;28;20406;-57
2023/05/25 02:43:02;;;;;;;15.55;5.68;;;9.50;99.90;;;;;;5061305;28;20104;-56
2023/05/25 02:45:28;;;;;;;14.40;5.68;;;9.50;99.90;;;;;;5059526;28;20445;-57
2023/05/25 02:47:54;;;;;;;15.48;6.28;;;9.40;99.90;;;;;;5060501;28;20049;-56
2023/05/25 02:50:20;;;;;;;14.50;5.97;;;9.40;99.90;;;;;;5060245;28;20041;-55
2023/05/25 02:52:46;;;;;;;14.85;6.25;;;9.30;99.90;;;;;;5059948;28;20044;-56
2023/05/25 02:55:17;;;;;;;15.63;6.30;;;9.40;99.90;;;;;;5060594;28;20425;-56
2023/05/25 02:57:43;;;;;;;13.37;6.37;;;9.30;99.90;;;;;;5058992;28;20055;-56
2023/05/25 03:00:11;;;;;;;13.40;5.70;;;9.40;99.90;;;;;;5042552;28;20290;-55
2023/05/25 03:02:36;;;;;;;15.48;6.30;;;9.20;99.90;;;;;;5058062;28;20041;-56
2023/05/25 03:05:02;;;;;;;13.32;5.90;;;9.20;99.90;;;;;;5060819;28;20080;-57
2023/05/25 03:07:28;;;;;;;13.63;5.93;;;9.20;99.90;;;;;;5041881;28;20041;-56
2023/05/25 03:09:54;;;;;;;9.82;5.13;;;9.30;99.90;;;;;;5059606;28;20052;-57
2023/05/25 03:12:19;;;;;;;13.90;5.45;;;9.10;99.90;;;;;;5060284;28;20088;-57
2023/05/25 03:14:45;;;;;;;12.32;5.75;;;9.20;99.90;;;;;;5058826;28;20052;-56
2023/05/25 03:17:11;;;;;;;11.68;5.88;;;9.10;99.90;;;;;;5060471;28;20120;-57
2023/05/25 03:19:36;;;;;;;14.05;6.15;;;9.30;99.90;;;;;;5058819;28;20114;-56
2023/05/25 03:22:03;;;;;;;12.73;6.00;;;9.20;99.90;;;;;;5060248;28;20068;-56
2023/05/25 03:24:28;;;;;;;14.23;5.90;;;9.20;99.90;;;;;;5059405;28;20045;-56
2023/05/25 03:26:54;;;;;;;14.98;5.75;;;9.20;99.90;;;;;;5059503;28;20045;-57
2023/05/25 03:29:20;;;;;;;15.65;6.05;;;9.20;99.90;;;;;;5059806;28;20052;-56
2023/05/25 03:31:46;;;;;;;10.55;5.32;;;9.20;99.90;;;;;;5058426;28;20041;-56
2023/05/25 03:34:12;;;;;;;15.25;6.10;;;9.10;99.90;;;;;;5060044;28;20378;-57
2023/05/25 03:36:37;;;;;;;11.85;5.70;;;9.00;99.90;;;;;;5058092;28;20041;-56
2023/05/25 03:39:06;;;;;;;11.77;5.80;;;9.20;99.90;;;;;;5060078;28;20045;-56
2023/05/25 03:41:31;;;;;;;12.63;5.65;;;8.90;99.90;;;;;;5069460;28;20045;-56
2023/05/25 03:43:57;;;;;;;13.35;5.53;;;9.00;99.90;;;;;;5079277;28;20123;-56
2023/05/25 03:46:23;;;;;;;11.65;5.35;;;9.00;99.90;;;;;;5079727;28;20044;-57
2023/05/25 03:48:48;;;;;;;12.75;5.63;;;9.20;99.90;;;;;;5078185;28;20040;-57
2023/05/25 03:51:15;;;;;;;11.85;5.65;;;9.20;99.90;;;;;;5079750;28;20036;-57
2023/05/25 03:53:41;;;;;;;14.02;5.80;;;9.20;99.90;;;;;;5077892;28;20080;-56
2023/05/25 03:56:06;;;;;;;12.75;5.88;;;9.30;99.90;;;;;;5080038;28;20044;-55
2023/05/25 03:58:32;;;;;;;17.17;5.63;;;9.10;99.90;;;;;;5078189;28;20048;-56
2023/05/25 04:00:57;;;;;;;13.68;5.90;;;9.30;99.90;;;;;;5079145;28;20455;-56
2023/05/25 04:03:23;;;;;;;13.68;6.55;;;9.30;99.90;;;;;;5079104;28;20515;-57
2023/05/25 04:05:49;;;;;;;13.43;5.97;;;9.30;99.90;;;;;;5079842;28;20044;-56
2023/05/25 04:08:16;;;;;;;13.57;5.68;;;9.30;99.90;;;;;;5100080;28;20467;-56
2023/05/25 04:10:46;;;;;;;11.52;5.78;;;9.20;99.90;;;;;;5097845;28;20040;-56
2023/05/25 04:13:12;;;;;;;12.60;6.00;;;9.50;99.90;;;;;;5099808;28;20182;-57
2023/05/25 04:15:38;;;;;;;13.48;6.43;;;9.50;99.90;;;;;;5098221;28;20496;-57
2023/05/25 04:18:04;;;;;;;11.65;5.25;;;9.50;99.90;;;;;;5099181;28;20058;-56
2023/05/25 04:20:29;;;;;;;15.13;6.78;;;9.60;99.90;;;;;;5099125;28;20048;-57
2023/05/25 04:22:56;;;;;;;15.02;6.80;;;9.50;99.90;;;;;;5098107;28;20511;-56
2023/05/25 04:25:22;;;;;;;15.82;6.88;;;9.60;99.90;;;;;;5081439;28;20096;-57
2023/05/25 04:27:48;;;;;;;15.50;6.85;;;9.60;99.90;;;;;;5097458;28;20094;-57
2023/05/25 04:30:14;;;;;;;15.23;7.40;;;9.90;99.90;;;;;;5081524;28;20067;-57
2023/05/25 04:32:40;;;;;;;19.13;7.55;;;9.70;99.90;;;;;;5097489;28;20040;-55
2023/05/25 04:35:06;;;;;;;19.08;7.97;;;10.00;99.90;;;;;;5098650;28;20043;-57
2023/05/25 04:37:32;;;;;;;18.58;8.68;;;9.70;99.90;;;;;;5098762;28;20036;-56
2023/05/25 04:39:58;;;;;;;18.33;7.68;;;10.00;99.90;;;;;;5097903;28;20073;-57
2023/05/25 04:42:25;;;;;;;19.33;8.13;;;10.00;99.90;;;;;;5098924;28;20106;-56
2023/05/25 04:44:54;;;;;;;15.90;7.80;;;10.10;99.90;;;;;;5097169;28;20035;-56
2023/05/25 04:47:20;;;;;;;19.85;8.95;;;9.90;99.90;;;;;;5099458;28;21035;-56
2023/05/25 04:49:46;;;;;;;17.92;8.50;;;10.00;99.90;;;;;;5097189;28;20060;-57
2023/05/25 04:52:12;;;;;;;19.48;8.80;;;10.40;99.90;;;;;;5098916;28;20040;-56
2023/05/25 04:54:38;;;;;;;17.15;8.15;;;10.20;99.90;;;;;;5098124;28;20051;-57
2023/05/25 04:57:03;;;;;;;16.98;8.07;;;10.40;99.90;;;;;;5097634;28;20048;-56
2023/05/25 04:59:29;;;;;;;21.13;8.93;;;10.30;99.90;;;;;;5098770;28;20071;-56
2023/05/25 05:01:55;;;;;;;20.90;9.02;;;10.20;99.90;;;;;;5097011;28;20040;-57
2023/05/25 05:04:20;;;;;;;22.45;9.13;;;10.30;99.90;;;;;;5098662;28;20051;-57
2023/05/25 05:06:46;;;;;;;20.05;9.10;;;10.40;99.90;;;;;;5097223;28;20120;-57
2023/05/25 05:09:12;;;;;;;17.42;7.85;;;10.50;99.90;;;;;;5098972;28;20051;-56
2023/05/25 05:11:38;;;;;;;18.80;8.80;;;10.60;99.90;;;;;;5097760;28;20055;-57
2023/05/25 05:14:04;;;;;;;18.15;9.13;;;10.60;99.90;;;;;;5097494;28;20054;-56
2023/05/25 05:16:33;;;;;;;22.45;9.13;;;10.90;99.90;;;;;;5098540;28;20046;-56
2023/05/25 05:18:59;;;;;;;22.83;9.80;;;11.00;99.90;;;;;;5078955;28;20059;-56
2023/05/25 05:21:25;;;;;;;16.95;8.45;;;11.10;99.90;;;;;;5098836;28;20492;-56
2023/05/25 05:23:50;;;;;;;17.75;8.73;;;11.00;99.90;;;;;;5097168;28;20044;-56
2023/05/25 05:26:16;;;;;;;21.00;8.85;;;11.20;99.90;;;;;;5105062;28;20051;-56
2023/05/25 05:28:42;;;;;;;18.33;8.27;;;11.30;99.90;;;;;;5104362;28;20068;-57
2023/05/25 05:31:07;;;;;;;15.85;7.82;;;11.50;99.90;;;;;;5104272;28;20051;-56
2023/05/25 05:33:33;;;;;;;17.73;7.82;;;11.40;99.90;;;;;;5104825;28;20165;-57
2023/05/25 05:36:00;;;;;;;16.67;7.45;;;11.50;99.90;;;;;;5103637;28;20071;-57
2023/05/25 05:38:26;;;;;;;15.18;7.55;;;11.70;99.90;;;;;;5105525;28;20048;-56
2023/05/25 05:40:51;;;;;;;17.30;7.80;;;11.70;99.90;;;;;;5103054;28;20133;-56
2023/05/25 05:43:17;;;;;;;21.15;7.60;;;11.90;99.90;;;;;;5105303;28;20044;-56
2023/05/25 05:45:43;;;;;;;18.40;7.90;;;11.80;99.90;;;;;;5103845;28;20044;-57
2023/05/25 05:48:08;;;;;;;20.35;7.50;;;12.10;99.90;;;;;;5103951;28;20043;-57
2023/05/25 05:50:37;;;;;;;23.52;7.55;;;12.20;99.90;;;;;;5104368;28;20048;-56
2023/05/25 05:53:05;;;;;;;20.10;7.53;;;12.20;99.90;;;;;;5103576;28;20055;-57
2023/05/25 05:55:31;;;;;;;17.55;6.22;;;12.10;99.90;;;;;;5105115;28;20048;-57
2023/05/25 05:57:56;;;;;;;18.42;6.50;;;12.30;99.90;;;;;;5103150;28;20036;-55
2023/05/25 06:00:23;;;;;;;16.85;6.32;;;12.10;99.90;;;;;;5103243;28;20054;-55
2023/05/25 06:02:49;;;;;;;11.88;5.40;;;12.40;99.90;;;;;;5100293;28;20055;-57
2023/05/25 06:05:15;;;;;;;12.05;5.20;;;12.40;99.90;;;;;;5077660;28;20048;-57
2023/05/25 06:07:41;;;;;;;12.27;5.40;;;12.20;99.90;;;;;;5090708;28;20067;-57
2023/05/25 06:10:07;;;;;;;13.23;4.38;;;12.40;99.90;;;;;;5088280;28;20032;-57
2023/05/25 06:12:33;;;;;;;15.15;5.05;;;12.50;99.90;;;;;;5069237;28;20048;-57
2023/05/25 06:14:58;;;;;;;15.13;5.50;;;12.50;99.90;;;;;;5084008;28;20141;-57
2023/05/25 06:17:24;;;;;;;14.63;5.93;;;12.50;99.90;;;;;;5092030;28;20032;-57
2023/05/25 06:19:50;;;;;;;12.80;4.47;;;12.60;99.90;;;;;;5091080;28;20115;-56
2023/05/25 06:22:16;;;;;;;12.38;4.57;;;12.70;99.90;;;;;;5101314;28;20059;-57
2023/05/25 06:24:41;;;;;;;16.67;4.95;;;12.70;99.90;;;;;;5082229;28;20082;-57
2023/05/25 06:27:07;;;;;;;16.60;4.78;;;12.70;99.90;;;;;;5100160;28;20044;-56
2023/05/25 06:29:33;;;;;;;13.63;3.90;;;12.70;99.90;;;;;;5101071;28;20048;-57
2023/05/25 06:31:59;;;;;;;12.07;3.40;;;12.70;99.90;;;;;;5099385;28;20082;-57
2023/05/25 06:34:25;;;;;;;9.98;3.78;;;12.70;99.90;;;;;;5101523;28;20059;-57
2023/05/25 06:36:51;;;;;;;15.18;3.70;;;12.80;99.90;;;;;;5097317;28;20039;-56
2023/05/25 06:39:17;;;;;;;15.85;3.70;;;12.90;99.90;;;;;;5097981;28;20108;-57
2023/05/25 06:41:43;;;;;;;13.35;3.50;;;12.90;99.90;;;;;;5097427;28;20056;-56
2023/05/25 06:44:09;;;;;;;14.20;4.05;;;12.80;99.90;;;;;;5096822;28;20051;-57
2023/05/25 06:46:35;;;;;;;15.70;3.80;;;13.00;99.90;;;;;;5097835;28;20579;-57
2023/05/25 06:49:01;;;;;;;13.00;3.85;;;13.00;99.90;;;;;;5095665;28;20458;-56
2023/05/25 06:51:27;;;;;;;15.77;3.33;;;13.00;99.90;;;;;;5080042;28;20110;-56
2023/05/25 06:53:54;;;;;;;12.57;3.45;;;13.20;99.90;;;;;;5096044;28;20116;-57
2023/05/25 06:56:21;;;;;;;15.65;3.70;;;13.30;99.90;;;;;;5088463;28;20044;-56
2023/05/25 06:58:50;;;;;;;12.73;3.58;;;13.30;99.90;;;;;;5076452;28;20052;-56
2023/05/25 07:01:16;;;;;;;16.58;3.70;;;13.40;99.90;;;;;;5075727;28;20044;-57
2023/05/25 07:03:42;;;;;;;17.70;4.05;;;13.40;99.90;;;;;;5077371;28;20055;-56
2023/05/25 07:06:10;;;;;;;17.58;4.43;;;13.60;99.90;;;;;;5075748;28;20045;-57
2023/05/25 07:08:35;;;;;;;14.75;4.43;;;13.60;99.90;;;;;;5077267;28;20059;-56
2023/05/25 07:11:01;;;;;;;19.85;3.88;;;13.60;99.90;;;;;;5075506;28;20037;-56
2023/05/25 07:13:26;;;;;;;21.15;5.40;;;13.60;99.90;;;;;;5076277;28;20059;-57
2023/05/25 07:15:52;;;;;;;20.27;4.82;;;13.70;99.90;;;;;;5096535;28;20108;-56
2023/05/25 07:18:18;;;;;;;20.05;5.25;;;13.70;99.90;;;;;;5096660;28;20044;-57
2023/05/25 07:20:44;;;;;;;21.52;4.00;;;14.00;99.90;;;;;;5097052;28;20119;-57
2023/05/25 07:23:10;;;;;;;17.20;4.22;;;14.00;99.90;;;;;;5095453;28;20047;-57
2023/05/25 07:25:40;;;;;;;18.58;4.50;;;14.00;99.90;;;;;;5097329;28;20067;-57
2023/05/25 07:28:06;;;;;;;24.38;5.07;;;14.10;99.90;;;;;;5095298;28;20197;-56
2023/05/25 07:30:32;;;;;;;22.85;4.63;;;14.00;99.90;;;;;;5096700;28;20044;-57
2023/05/25 07:32:58;;;;;;;19.27;5.15;;;13.80;99.90;;;;;;5096119;28;20083;-57
2023/05/25 07:35:24;;;;;;;18.27;4.18;;;13.70;99.90;;;;;;5095468;28;20040;-57
2023/05/25 07:38:00;;;;;;;20.52;4.50;;;13.60;99.90;;;;;;5096279;28;20048;-57
2023/05/25 07:40:27;;;;;;;18.20;4.50;;;13.70;99.90;;;;;;5094811;28;20529;-57
2023/05/25 07:42:53;;;;;;;26.60;4.93;;;13.80;99.90;;;;;;5096911;28;20088;-56
2023/05/25 07:45:19;;;;;;;18.90;4.13;;;13.70;99.90;;;;;;5095265;28;20046;-57
2023/05/25 07:47:45;;;;;;;19.38;5.40;;;13.60;99.90;;;;;;5097269;28;20514;-57
2023/05/25 07:50:12;;;;;;;25.05;4.30;;;13.60;99.90;;;;;;5098708;28;20036;-55
2023/05/25 07:52:37;;;;;;;20.67;5.47;;;14.00;99.90;;;;;;5097046;28;20075;-57
2023/05/25 07:55:05;;;;;;;16.85;3.97;;;14.30;99.90;;;;;;5098711;28;20039;-56
2023/05/25 07:57:31;;;;;;;18.38;4.28;;;14.30;99.90;;;;;;5097996;28;20048;-56
2023/05/25 07:59:56;;;;;;;24.17;4.85;;;14.50;99.90;;;;;;5099250;28;20052;-57
2023/05/25 08:02:22;;;;;;;21.63;4.72;;;14.50;99.90;;;;;;5097641;28;20099;-57
2023/05/25 08:04:48;;;;;;;19.15;3.90;;;14.50;99.90;;;;;;5099243;28;20060;-57
2023/05/25 08:07:14;;;;;;;19.73;4.47;;;14.60;99.90;;;;;;5097966;28;20491;-56
2023/05/25 08:09:39;;;;;;;22.90;4.55;;;14.40;99.90;;;;;;5097611;28;20040;-57
2023/05/25 08:12:05;;;;;;;21.45;5.15;;;14.50;99.90;;;;;;5099135;28;20040;-57
2023/05/25 08:14:31;;;;;;;25.75;5.10;;;14.50;99.90;;;;;;5097431;28;20070;-56
2023/05/25 08:16:56;;;;;;;23.00;4.82;;;14.60;99.90;;;;;;5099209;28;20540;-57
2023/05/25 08:19:22;;;;;;;17.75;3.42;;;14.60;99.90;;;;;;5096748;28;20131;-57
2023/05/25 08:21:47;;;;;;;21.60;5.15;;;14.60;99.90;;;;;;5098545;28;20044;-57
2023/05/25 08:24:13;;;;;;;20.23;4.97;;;14.80;99.90;;;;;;5078769;28;20127;-56
2023/05/25 08:26:40;;;;;;;19.77;3.95;;;14.70;99.90;;;;;;5098027;28;20044;-56
2023/05/25 08:29:06;;;;;;;22.67;4.35;;;14.80;99.90;;;;;;5079848;28;20063;-56
2023/05/25 08:31:32;;;;;;;21.27;3.88;;;14.80;99.90;;;;;;5096501;28;20423;-57
2023/05/25 08:33:59;;;;;;;18.73;3.80;;;15.10;99.90;;;;;;5098256;28;20113;-56
2023/05/25 08:36:26;;;;;;;18.65;4.18;;;15.00;99.90;;;;;;5096681;28;20086;-56
2023/05/25 08:38:52;;;;;;;18.15;3.83;;;14.80;99.90;;;;;;5098705;28;20048;-56
2023/05/25 08:41:20;;;;;;;16.88;4.05;;;14.90;99.90;;;;;;5097552;28;20064;-57
2023/05/25 08:43:46;;;;;;;24.48;4.13;;;14.80;99.90;;;;;;5098311;28;20131;-57
2023/05/25 08:46:12;;;;;;;20.65;5.45;;;14.90;99.90;;;;;;5098356;28;20109;-58
2023/05/25 08:48:38;;;;;;;18.20;3.92;;;14.80;99.90;;;;;;5097308;28;20036;-56
2023/05/25 08:51:08;;;;;;;14.13;3.63;;;14.80;99.90;;;;;;5099127;28;20058;-57
2023/05/25 08:53:35;;;;;;;23.23;4.78;;;15.00;99.90;;;;;;5096859;28;20054;-57
2023/05/25 08:56:18;;;;;;;22.42;5.30;;;14.90;99.90;;;;;;5099058;28;20051;-58
2023/05/25 08:59:21;;;;;;;17.08;3.70;;;14.50;99.90;;;;;;5097211;28;20043;-57
2023/05/25 09:01:55;;;;;;;16.50;4.15;;;14.90;99.90;;;;;;5093780;28;20098;-58
2023/05/25 09:04:22;;;;;;;18.42;4.78;;;15.30;99.90;;;;;;5078220;28;20048;-58
2023/05/25 09:06:48;;;;;;;16.85;4.75;;;15.20;99.90;;;;;;5076594;28;20749;-56
2023/05/25 09:09:13;;;;;;;20.75;3.97;;;15.20;99.90;;;;;;5078216;28;20095;-57
2023/05/25 09:11:41;;;;;;;17.45;3.67;;;15.20;99.90;;;;;;5077236;28;20048;-57
2023/05/25 09:14:07;;;;;;;18.65;3.40;;;14.70;99.90;;;;;;5076687;28;20036;-57
2023/05/25 09:16:35;;;;;;;19.88;4.57;;;15.00;99.90;;;;;;5077978;28;20044;-56
2023/05/25 09:19:01;;;;;;;24.02;4.85;;;14.90;99.90;;;;;;5076258;28;20048;-57
2023/05/25 09:21:26;;;;;;;19.80;4.32;;;15.10;99.90;;;;;;5077168;28;20045;-56
2023/05/25 09:23:52;;;;;;;20.63;4.15;;;15.10;99.90;;;;;;5076643;28;20048;-57
2023/05/25 09:26:18;;;;;;;17.95;3.67;;;15.10;99.90;;;;;;5078349;28;20079;-57
2023/05/25 09:28:48;;;;;;;14.63;3.55;;;15.30;99.90;;;;;;5077141;28;20098;-57
2023/05/25 09:31:16;;;;;;;17.00;3.97;;;15.10;99.90;;;;;;5076786;28;20033;-57
2023/05/25 09:33:44;;;;;;;21.27;4.95;;;15.20;99.90;;;;;;5076494;28;20037;-57
2023/05/25 09:36:13;;;;;;;17.50;3.90;;;15.10;99.90;;;;;;5075896;28;20048;-56
2023/05/25 09:38:39;;;;;;;20.17;4.72;;;15.40;99.90;;;;;;5078176;28;20041;-57
2023/05/25 09:41:05;;;;;;;22.50;4.40;;;15.40;99.90;;;;;;5075688;28;20065;-56
2023/05/25 09:43:32;;;;;;;18.00;4.93;;;15.50;99.90;;;;;;5079603;28;20055;-57
2023/05/25 09:45:58;;;;;;;22.02;3.95;;;15.60;99.90;;;;;;5097708;28;20125;-57
2023/05/25 09:48:24;;;;;;;19.83;4.40;;;15.50;99.90;;;;;;5096990;28;20044;-56
2023/05/25 09:50:50;;;;;;;22.58;5.13;;;15.50;99.90;;;;;;5098325;28;20204;-57
2023/05/25 09:53:16;;;;;;;22.90;4.72;;;15.50;99.90;;;;;;5096087;28;20051;-56
2023/05/25 09:55:41;;;;;;;24.75;5.32;;;15.60;99.90;;;;;;5064796;28;20036;-57
2023/05/25 09:58:07;;;;;;;16.60;3.97;;;15.30;99.90;;;;;;5075908;28;20135;-57
2023/05/25 10:00:33;;;;;;;19.35;4.20;;;15.70;99.90;;;;;;5077607;28;20496;-57
2023/05/25 10:02:59;;;;;;;23.20;4.68;;;15.80;99.90;;;;;;5077060;28;20044;-56
2023/05/25 10:05:25;;;;;;;16.27;4.57;;;15.90;99.90;;;;;;5076622;28;20045;-56
2023/05/25 10:07:52;;;;;;;16.23;3.13;;;16.00;99.90;;;;;;5077489;28;20089;-57
2023/05/25 10:10:19;;;;;;;19.15;4.18;;;16.20;99.90;;;;;;5076016;28;20100;-56
2023/05/25 10:12:49;;;;;;;18.98;4.53;;;16.00;99.90;;;;;;5081042;28;20060;-56
2023/05/25 10:15:17;;;;;;;17.05;4.55;;;15.60;99.90;;;;;;5080102;28;20076;-56
2023/05/25 10:17:54;;;;;;;18.02;4.30;;;15.60;99.90;;;;;;5081118;28;20064;-56
2023/05/25 10:20:24;;;;;;;21.33;5.28;;;15.70;99.90;;;;;;5084568;28;20120;-56
2023/05/25 10:22:59;;;;;;;20.20;4.32;;;16.00;99.90;;;;;;5086003;28;20638;-55
2023/05/25 10:25:46;;;;;;;17.08;3.88;;;16.00;99.90;;;;;;5090537;28;20051;-56
2023/05/25 10:28:35;;;;;;;20.98;4.80;;;16.20;99.90;;;;;;5059354;28;20049;-56
2023/05/25 10:31:02;;;;;;;23.25;4.50;;;16.00;99.90;;;;;;5084204;28;20400;-55
2023/05/25 10:33:29;;;;;;;19.08;4.53;;;16.20;99.90;;;;;;5091320;28;20041;-56
2023/05/25 10:35:56;;;;;;;21.48;3.92;;;16.30;99.90;;;;;;5079669;28;20041;-57
2023/05/25 10:38:25;;;;;;;15.95;3.47;;;16.40;99.90;;;;;;5081034;28;20052;-54
2023/05/25 10:40:52;;;;;;;16.65;4.20;;;15.90;99.90;;;;;;5079186;28;20048;-56
2023/05/25 10:43:19;;;;;;;17.33;4.07;;;16.10;99.90;;;;;;5080885;28;20053;-56
2023/05/25 10:45:47;;;;;;;25.13;5.07;;;15.90;99.90;;;;;;5079711;28;20040;-56
2023/05/25 10:48:14;;;;;;;19.98;4.20;;;16.00;99.90;;;;;;5079501;28;20045;-56
2023/05/25 10:50:40;;;;;;;20.13;4.10;;;16.00;99.90;;;;;;5080544;28;20092;-56
2023/05/25 10:53:15;;;;;;;19.80;4.80;;;16.10;99.90;;;;;;5078031;28;20048;-56
2023/05/25 10:55:52;;;;;;;18.38;4.30;;;15.80;99.90;;;;;;5080067;28;20049;-56
2023/05/25 10:58:20;;;;;;;17.98;3.90;;;15.80;99.90;;;;;;5078879;28;20049;-57
2023/05/25 11:01:06;;;;;;;21.33;4.80;;;15.80;99.90;;;;;;5080198;28;20052;-56
2023/05/25 11:03:55;;;;;;;20.17;4.10;;;16.00;99.90;;;;;;5079898;28;20048;-56
2023/05/25 11:06:45;;;;;;;23.13;5.32;;;16.30;99.90;;;;;;5078219;28;20082;-56
2023/05/25 11:09:27;;;;;;;24.73;5.60;;;16.40;99.90;;;;;;5079891;28;20345;-56
2023/05/25 11:11:58;;;;;;;20.15;4.25;;;16.20;99.90;;;;;;5079715;28;20065;-56
2023/05/25 11:14:31;;;;;;;23.13;4.78;;;15.80;99.90;;;;;;5078201;28;20120;-57
2023/05/25 11:17:12;;;;;;;21.15;4.30;;;16.10;99.90;;;;;;5080210;28;20076;-56
2023/05/25 11:19:53;;;;;;;22.98;4.45;;;16.10;99.90;;;;;;5077913;28;20079;-56
2023/05/25 11:22:31;;;;;;;22.23;4.28;;;16.10;99.90;;;;;;5078711;28;20123;-56
2023/05/25 11:24:58;;;;;;;19.67;4.65;;;16.10;99.90;;;;;;5079887;28;20088;-56
2023/05/25 11:27:27;;;;;;;38.80;6.78;;;15.80;99.90;;;;;;5078660;28;20400;-57
2023/05/25 11:29:56;;;;;;;17.25;4.28;;;16.00;99.90;;;;;;5080291;28;20056;-56
2023/05/25 11:32:24;;;;;;;16.70;4.10;;;16.00;99.90;;;;;;5078153;28;20048;-56
2023/05/25 11:34:56;;;;;;;21.83;4.57;;;16.10;99.90;;;;;;5077993;28;20497;-56
2023/05/25 11:37:27;;;;;;;24.55;4.65;;;15.90;99.90;;;;;;5078818;28;20214;-53
2023/05/25 11:39:53;;;;;;;18.42;4.50;;;16.20;99.90;;;;;;5078038;28;20096;-56
2023/05/25 11:42:21;;;;;;;16.23;3.47;;;16.30;99.90;;;;;;5092510;28;20056;-57
2023/05/25 11:44:47;;;;;;;17.30;3.95;;;16.50;99.90;;;;;;5098391;28;20082;-57
2023/05/25 11:47:17;;;;;;;16.48;3.35;;;16.30;99.90;;;;;;5082173;28;20028;-57
2023/05/25 11:49:48;;;;;;;18.23;4.35;;;16.30;99.90;;;;;;5098842;28;20044;-56
2023/05/25 11:52:16;;;;;;;22.27;4.75;;;16.00;99.90;;;;;;5099751;28;20043;-56
2023/05/25 11:54:43;;;;;;;20.98;4.97;;;16.30;99.90;;;;;;5099175;28;20122;-57
2023/05/25 11:57:19;;;;;;;16.92;4.47;;;16.20;99.90;;;;;;5098399;28;20047;-56
2023/05/25 11:59:56;;;;;;;22.33;4.75;;;16.10;99.90;;;;;;5100043;28;20063;-56
2023/05/25 12:02:22;;;;;;;18.60;3.70;;;16.10;99.90;;;;;;5097042;28;20048;-57
2023/05/25 12:04:57;;;;;;;20.60;3.60;;;16.00;99.90;;;;;;5098991;28;20048;-57
2023/05/25 12:07:25;;;;;;;19.20;4.50;;;15.70;99.90;;;;;;5097875;28;20071;-57
2023/05/25 12:09:51;;;;;;;20.83;4.00;;;15.80;99.90;;;;;;5096319;28;20044;-57
2023/05/25 12:12:18;;;;;;;25.33;4.70;;;15.70;99.90;;;;;;5098833;28;20051;-56
2023/05/25 12:14:50;;;;;;;19.83;4.07;;;16.10;99.90;;;;;;5097714;28;20087;-56
2023/05/25 12:17:17;;;;;;;22.58;4.53;;;16.20;99.90;;;;;;5099694;28;20044;-56
2023/05/25 12:19:44;;;;;;;18.85;4.90;;;16.40;99.90;;;;;;5098120;28;20080;-57
2023/05/25 12:22:11;;;;;;;22.05;4.28;;;16.30;99.90;;;;;;5099052;28;20047;-56
2023/05/25 12:24:36;;;;;;;19.42;4.93;;;16.00;99.90;;;;;;5099021;28;20062;-56
2023/05/25 12:27:04;;;;;;;21.55;4.55;;;16.30;99.90;;;;;;5097905;28;20095;-57
2023/05/25 12:29:30;;;;;;;18.48;4.70;;;16.20;99.90;;;;;;5099229;28;20046;-57
2023/05/25 12:32:04;;;;;;;19.90;4.22;;;15.90;99.90;;;;;;5097342;28;20407;-57
2023/05/25 12:34:30;;;;;;;20.95;4.38;;;16.00;99.90;;;;;;5099247;28;20407;-57
2023/05/25 12:36:56;;;;;;;20.90;4.85;;;16.20;99.90;;;;;;5097966;28;20040;-57
2023/05/25 12:39:30;;;;;;;21.77;4.35;;;15.80;99.90;;;;;;5098629;28;20052;-57
2023/05/25 12:42:01;;;;;;;20.65;5.28;;;15.90;99.90;;;;;;5098590;28;20419;-56
2023/05/25 12:44:33;;;;;;;19.52;3.83;;;16.20;99.90;;;;;;5097165;28;20043;-56